Time;durP1;ratioP1;P1;durP2;ratioP2;P2;SDS_P1;SDS_P2;PMS_P1;PMS_P2;Temp;Humidity;BMP_temperature;BMP_pressure;BME280_temperature;BME280_humidity;BME280_pressure;Samples;Min_cycle;Max_cycle;Signal;HPM_P1;HPM_P2
2023/08/02 00:02:07;;;;;;;0.40;0.30;;;;;;;24.14;79.13;94801.06;5112224;28;20439;-53
2023/08/02 00:04:35;;;;;;;0.40;0.30;;;;;;;24.18;79.00;94803.84;5112203;28;20959;-53
2023/08/02 00:07:04;;;;;;;0.40;0.30;;;;;;;24.18;78.24;94803.84;5112286;28;20439;-53
2023/08/02 00:09:33;;;;;;;0.60;0.40;;;;;;;24.13;79.06;94812.28;5112679;28;20528;-52
2023/08/02 00:12:01;;;;;;;0.50;0.50;;;;;;;24.18;78.56;94812.75;5112220;28;20872;-53
2023/08/02 00:14:30;;;;;;;0.40;0.30;;;;;;;24.13;79.88;94804.16;5112478;28;20968;-53
2023/08/02 00:16:59;;;;;;;0.40;0.30;;;;;;;24.22;79.16;94808.16;5112541;28;20447;-53
2023/08/02 00:19:28;;;;;;;0.40;0.30;;;;;;;24.19;78.80;94813.50;5112126;28;20443;-53
2023/08/02 00:21:56;;;;;;;1.07;0.50;;;;;;;23.57;78.32;94725.66;5111800;28;20447;-53
2023/08/02 00:24:25;;;;;;;0.50;0.30;;;;;;;24.11;79.99;94803.75;5112116;28;20435;-53
2023/08/02 00:26:53;;;;;;;0.53;0.30;;;;;;;24.10;80.12;94815.72;5112076;28;20899;-53
2023/08/02 00:29:21;;;;;;;0.40;0.20;;;;;;;24.11;80.29;94820.00;5111892;28;20471;-53
2023/08/02 00:31:50;;;;;;;0.60;0.37;;;;;;;24.08;80.24;94813.38;5111730;28;20500;-53
2023/08/02 00:34:19;;;;;;;0.50;0.40;;;;;;;23.87;81.78;94808.44;5111677;28;21026;-53
2023/08/02 00:36:48;;;;;;;0.93;0.40;;;;;;;23.95;81.78;94803.88;5111406;28;20474;-51
2023/08/02 00:39:18;;;;;;;0.50;0.43;;;;;;;24.00;81.68;94809.78;5078646;28;20519;-53
2023/08/02 00:41:46;;;;;;;1.27;0.73;;;;;;;23.81;82.41;94787.44;5106147;28;20454;-52
2023/08/02 00:44:15;;;;;;;0.50;0.50;;;;;;;24.01;81.64;94807.81;5111790;28;20448;-53
2023/08/02 00:46:43;;;;;;;0.60;0.40;;;;;;;24.00;82.03;94800.88;5111469;28;20518;-52
2023/08/02 00:49:12;;;;;;;0.60;0.50;;;;;;;23.96;81.00;94797.31;5111588;28;20487;-53
2023/08/02 00:51:42;;;;;;;2.20;0.70;;;;;;;23.87;82.69;94797.59;5111358;28;20500;-53
2023/08/02 00:54:10;;;;;;;0.60;0.50;;;;;;;23.87;82.81;94796.81;5112269;28;20452;-53
2023/08/02 00:56:40;;;;;;;0.40;0.30;;;;;;;23.83;83.59;94796.00;5111537;28;20873;-52
2023/08/02 00:59:08;;;;;;;0.50;0.30;;;;;;;23.77;84.09;94800.94;5111637;28;20964;-53
2023/08/02 01:01:38;;;;;;;0.40;0.30;;;;;;;23.83;83.42;94796.75;5110968;28;20431;-53
2023/08/02 01:04:06;;;;;;;0.40;0.30;;;;;;;23.82;83.49;94791.72;5112101;28;20442;-53
2023/08/02 01:06:41;;;;;;;1.47;0.50;;;;;;;23.88;83.15;94792.97;5111596;28;20443;-53
2023/08/02 01:09:17;;;;;;;0.80;0.53;;;;;;;23.74;84.17;94795.47;5111677;28;20467;-53
2023/08/02 01:11:52;;;;;;;0.50;0.40;;;;;;;23.70;84.72;94797.34;5111833;28;20447;-53
2023/08/02 01:14:21;;;;;;;0.60;0.43;;;;;;;23.76;84.11;94802.06;5112000;28;20985;-52
2023/08/02 01:16:50;;;;;;;0.93;0.67;;;;;;;23.54;83.70;94751.50;5115606;28;20451;-53
2023/08/02 01:19:22;;;;;;;0.50;0.40;;;;;;;23.49;84.27;94765.34;5115515;28;20485;-53
2023/08/02 01:21:52;;;;;;;0.60;0.40;;;;;;;23.74;84.50;94806.28;5115200;28;20531;-53
2023/08/02 01:24:32;;;;;;;0.50;0.40;;;;;;;23.67;82.93;94806.97;5101145;28;20436;-52
2023/08/02 01:27:05;;;;;;;0.40;0.20;;;;;;;23.69;84.16;94801.97;5102476;28;20527;-53
2023/08/02 01:29:35;;;;;;;0.50;0.40;;;;;;;23.55;85.06;94811.81;5102858;28;20491;-53
2023/08/02 01:32:06;;;;;;;0.50;0.30;;;;;;;23.59;85.45;94810.72;5115592;28;20459;-52
2023/08/02 01:34:35;;;;;;;0.70;0.40;;;;;;;23.62;85.13;94809.19;5115324;28;20436;-53
2023/08/02 01:37:05;;;;;;;0.50;0.40;;;;;;;23.58;85.56;94814.53;5115272;28;20436;-52
2023/08/02 01:39:33;;;;;;;0.50;0.40;;;;;;;23.52;85.81;94818.72;5115386;28;20461;-52
2023/08/02 01:42:02;;;;;;;0.50;0.37;;;;;;;23.50;86.30;94823.72;5114997;27;20443;-52
2023/08/02 01:44:30;;;;;;;0.90;0.60;;;;;;;23.52;85.82;94821.44;5115012;28;20436;-53
2023/08/02 01:46:58;;;;;;;0.40;0.20;;;;;;;23.30;84.44;94787.06;5115178;28;20435;-52
2023/08/02 01:49:30;;;;;;;0.40;0.30;;;;;;;23.61;85.00;94827.34;5114693;28;20940;-53
2023/08/02 01:51:59;;;;;;;0.50;0.40;;;;;;;23.51;84.06;94819.06;5115288;28;20924;-53
2023/08/02 01:54:29;;;;;;;2.10;0.63;;;;;;;23.64;84.59;94826.63;5115339;28;20991;-53
2023/08/02 01:56:57;;;;;;;0.80;0.70;;;;;;;23.76;84.04;94839.16;5114588;28;20895;-53
2023/08/02 01:59:27;;;;;;;1.87;0.97;;;;;;;23.74;83.60;94836.84;5101568;28;20497;-53
2023/08/02 02:01:55;;;;;;;0.43;0.37;;;;;;;23.63;83.97;94835.13;5114679;27;20444;-53
2023/08/02 02:04:29;;;;;;;0.83;0.70;;;;;;;23.39;85.47;94841.69;5100925;28;20436;-52
2023/08/02 02:06:57;;;;;;;0.80;0.80;;;;;;;23.51;85.46;94840.72;5106672;28;20440;-53
2023/08/02 02:09:25;;;;;;;1.70;1.70;;;;;;;23.27;85.98;94845.34;5095619;28;20468;-52
2023/08/02 02:11:55;;;;;;;0.80;0.53;;;;;;;23.14;87.56;94835.06;5114623;28;20889;-53
2023/08/02 02:14:23;;;;;;;1.30;0.73;;;;;;;22.69;92.36;94836.53;5114186;28;20447;-53
2023/08/02 02:16:52;;;;;;;0.60;0.60;;;;;;;23.03;90.27;94840.25;5114892;28;20874;-53
2023/08/02 02:19:20;;;;;;;0.80;0.80;;;;;;;22.94;91.40;94836.25;5114138;27;20443;-52
2023/08/02 02:21:48;;;;;;;0.50;0.40;;;;;;;22.95;91.30;94840.50;5104117;28;20512;-53
2023/08/02 02:24:17;;;;;;;1.00;0.90;;;;;;;23.07;91.95;94837.63;5111164;28;20428;-53
2023/08/02 02:26:45;;;;;;;0.60;0.40;;;;;;;23.01;89.98;94830.94;5114492;28;20459;-53
2023/08/02 02:29:15;;;;;;;3.30;0.40;;;;;;;23.11;89.96;94838.47;5113804;28;20463;-53
2023/08/02 02:31:43;;;;;;;0.50;0.50;;;;;;;23.12;91.30;94846.22;5114434;27;21011;-53
2023/08/02 02:34:11;;;;;;;0.50;0.30;;;;;;;23.07;90.65;94843.03;5114050;28;20463;-53
2023/08/02 02:36:40;;;;;;;0.60;0.60;;;;;;;22.99;91.36;94841.34;5113990;28;20474;-53
2023/08/02 02:39:08;;;;;;;0.50;0.30;;;;;;;23.00;91.52;94851.78;5113369;27;20434;-53
2023/08/02 02:41:37;;;;;;;0.50;0.40;;;;;;;22.86;94.25;94851.53;5114147;28;20468;-53
2023/08/02 02:44:05;;;;;;;0.70;0.30;;;;;;;22.87;93.77;94850.38;5086827;28;20564;-54
2023/08/02 02:46:35;;;;;;;0.60;0.60;;;;;;;22.93;93.26;94853.59;5113931;28;20450;-52
2023/08/02 02:49:03;;;;;;;0.50;0.30;;;;;;;22.98;91.68;94848.66;5113443;28;21020;-53
2023/08/02 02:51:32;;;;;;;0.53;0.53;;;;;;;22.91;92.98;94866.69;5113810;28;20480;-53
2023/08/02 02:54:00;;;;;;;0.90;0.50;;;;;;;22.99;92.52;94862.97;5114149;28;20755;-54
2023/08/02 02:56:28;;;;;;;0.73;0.73;;;;;;;23.01;91.80;94864.19;5113168;28;20436;-53
2023/08/02 02:58:57;;;;;;;0.60;0.53;;;;;;;23.07;91.43;94867.38;5113562;28;20439;-53
2023/08/02 03:01:25;;;;;;;0.70;0.60;;;;;;;22.61;94.55;94863.75;5113568;28;20469;-53
2023/08/02 03:03:55;;;;;;;0.73;0.70;;;;;;;22.75;93.82;94867.53;5113419;28;20452;-54
2023/08/02 03:06:23;;;;;;;1.00;0.83;;;;;;;23.03;92.12;94853.00;5112910;28;20443;-53
2023/08/02 03:08:52;;;;;;;1.07;0.70;;;;;;;22.49;94.13;94850.41;5113285;28;20949;-53
2023/08/02 03:11:20;;;;;;;1.27;1.17;;;;;;;22.29;98.20;94867.72;5112627;28;20471;-54
2023/08/02 03:13:48;;;;;;;0.60;0.50;;;;;;;22.57;95.72;94863.69;5113697;28;20427;-54
2023/08/02 03:16:17;;;;;;;2.10;0.63;;;;;;;22.65;94.87;94865.41;5113559;27;20432;-54
2023/08/02 03:18:45;;;;;;;3.30;0.80;;;;;;;22.49;95.83;94851.16;5113203;28;20532;-54
2023/08/02 03:21:15;;;;;;;1.10;0.87;;;;;;;22.66;94.52;94867.00;5112989;28;20448;-53
2023/08/02 03:23:43;;;;;;;0.73;0.73;;;;;;;22.61;95.64;94861.84;5112763;28;20953;-54
2023/08/02 03:26:12;;;;;;;0.80;0.77;;;;;;;22.35;97.22;94859.00;5106420;28;20519;-53
2023/08/02 03:28:40;;;;;;;0.50;0.30;;;;;;;22.20;99.86;94862.53;5106581;28;20522;-54
2023/08/02 03:31:08;;;;;;;0.60;0.40;;;;;;;22.56;96.75;94851.31;5112635;28;20472;-53
2023/08/02 03:33:37;;;;;;;1.00;0.63;;;;;;;22.77;94.18;94854.47;5112498;28;20439;-53
2023/08/02 03:36:05;;;;;;;0.90;0.67;;;;;;;23.00;91.73;94846.38;5112865;28;20440;-53
2023/08/02 03:38:35;;;;;;;0.80;0.53;;;;;;;23.12;90.64;94870.53;5112164;28;20863;-53
2023/08/02 03:41:03;;;;;;;0.77;0.63;;;;;;;23.03;90.52;94872.69;5113121;28;20440;-53
2023/08/02 03:43:32;;;;;;;0.50;0.37;;;;;;;23.05;90.69;94878.53;5112855;28;20501;-53
2023/08/02 03:46:00;;;;;;;0.50;0.30;;;;;;;23.08;90.69;94863.50;5113292;28;20473;-54
2023/08/02 03:48:31;;;;;;;5.23;1.53;;;;;;;22.99;90.64;94874.56;5112275;28;20483;-53
2023/08/02 03:50:59;;;;;;;0.60;0.30;;;;;;;23.19;89.42;94867.19;5112556;28;20463;-53
2023/08/02 03:53:28;;;;;;;1.03;0.40;;;;;;;22.94;91.51;94869.47;5112356;28;20475;-53
2023/08/02 03:55:57;;;;;;;0.60;0.57;;;;;;;23.01;91.94;94864.19;5112558;28;21015;-54
2023/08/02 03:58:26;;;;;;;1.00;1.00;;;;;;;22.78;89.14;94857.94;5112154;28;20444;-52
2023/08/02 04:00:54;;;;;;;1.00;0.93;;;;;;;22.52;92.94;94866.66;5112222;28;20530;-52
2023/08/02 04:03:23;;;;;;;1.87;0.77;;;;;;;22.73;93.05;94861.72;5112331;28;20440;-52
2023/08/02 04:05:51;;;;;;;6.43;1.00;;;;;;;22.35;93.58;94863.59;5112395;28;20887;-53
2023/08/02 04:08:19;;;;;;;0.93;0.40;;;;;;;22.59;94.91;94866.81;5111506;28;20428;-53
2023/08/02 04:10:47;;;;;;;0.70;0.70;;;;;;;22.52;93.68;94861.25;5112152;28;20587;-56
2023/08/02 04:13:17;;;;;;;0.87;0.83;;;;;;;22.32;92.33;94869.69;5112002;28;20463;-56
2023/08/02 04:15:46;;;;;;;0.73;0.73;;;;;;;22.04;94.96;94861.78;5111953;28;20444;-56
2023/08/02 04:18:14;;;;;;;0.87;0.87;;;;;;;21.96;95.72;94860.09;5112143;28;20649;-56
2023/08/02 04:20:42;;;;;;;0.50;0.40;;;;;;;21.94;97.41;94865.03;5111944;28;20475;-58
2023/08/02 04:23:11;;;;;;;1.10;0.77;;;;;;;21.67;100.00;94864.00;5111983;28;20492;-57
2023/08/02 04:25:39;;;;;;;0.83;0.83;;;;;;;21.67;100.00;94839.72;5111786;28;20436;-57
2023/08/02 04:28:08;;;;;;;0.43;0.30;;;;;;;22.14;98.58;94878.22;5112034;28;20440;-60
2023/08/02 04:30:37;;;;;;;0.50;0.40;;;;;;;22.28;97.95;94869.66;5111664;28;20439;-58
2023/08/02 04:33:06;;;;;;;1.03;0.43;;;;;;;22.63;95.34;94867.69;5111692;28;20523;-58
2023/08/02 04:35:35;;;;;;;0.40;0.30;;;;;;;22.86;94.11;94866.97;5111844;28;20462;-58
2023/08/02 04:38:03;;;;;;;0.50;0.30;;;;;;;22.79;94.31;94877.66;5111668;28;20436;-58
2023/08/02 04:40:31;;;;;;;0.50;0.40;;;;;;;22.81;92.95;94878.06;5111912;28;20444;-58
2023/08/02 04:43:00;;;;;;;0.40;0.30;;;;;;;23.06;91.66;94876.59;5112008;28;20461;-60
2023/08/02 04:45:29;;;;;;;0.50;0.30;;;;;;;22.95;93.80;94860.19;5111810;28;20922;-59
2023/08/02 04:47:59;;;;;;;0.70;0.60;;;;;;;22.65;93.09;94873.53;5111954;28;20478;-59
2023/08/02 04:50:27;;;;;;;0.50;0.50;;;;;;;22.42;94.01;94882.63;5114302;28;20467;-58
2023/08/02 04:52:55;;;;;;;0.50;0.40;;;;;;;22.63;94.06;94881.22;5116008;28;20869;-55
2023/08/02 04:55:24;;;;;;;0.73;0.40;;;;;;;22.54;92.90;94877.13;5115693;28;20436;-58
2023/08/02 04:57:52;;;;;;;1.07;0.93;;;;;;;22.92;90.97;94876.34;5115182;28;20516;-59
2023/08/02 05:00:21;;;;;;;0.63;0.63;;;;;;;22.88;90.55;94864.69;5115518;28;20436;-57
2023/08/02 05:02:49;;;;;;;0.70;0.70;;;;;;;22.86;89.35;94854.25;5115920;28;20439;-57
2023/08/02 05:05:19;;;;;;;0.70;0.70;;;;;;;23.17;90.38;94885.72;5115776;28;20440;-58
2023/08/02 05:07:47;;;;;;;0.70;0.57;;;;;;;23.09;88.54;94840.75;5115502;28;20526;-57
2023/08/02 05:10:16;;;;;;;0.60;0.50;;;;;;;23.57;85.75;94886.03;5115741;28;20518;-57
2023/08/02 05:12:44;;;;;;;0.60;0.50;;;;;;;23.62;88.78;94885.75;5115584;28;20487;-64
2023/08/02 05:15:13;;;;;;;0.50;0.30;;;;;;;23.83;88.55;94883.34;5115545;28;20439;-62
2023/08/02 05:17:41;;;;;;;0.50;0.47;;;;;;;24.01;84.22;94879.00;5114577;28;20534;-62
2023/08/02 05:20:10;;;;;;;2.23;0.60;;;;;;;24.12;86.79;94881.09;5105943;28;20518;-62
2023/08/02 05:22:40;;;;;;;1.97;1.37;;;;;;;23.79;85.01;94868.22;5115383;28;20440;-59
2023/08/02 05:25:09;;;;;;;1.27;1.17;;;;;;;23.77;85.96;94874.00;5115633;28;20443;-60
2023/08/02 05:27:38;;;;;;;1.47;0.73;;;;;;;23.92;84.71;94875.00;5115293;28;20528;-60
2023/08/02 05:30:08;;;;;;;1.53;0.77;;;;;;;24.08;86.15;94885.69;5115244;28;20432;-59
2023/08/02 05:32:36;;;;;;;1.10;1.07;;;;;;;23.42;86.48;94886.97;5088627;28;20910;-59
2023/08/02 05:35:05;;;;;;;0.70;0.70;;;;;;;24.05;85.81;94889.88;5114999;28;20443;-60
2023/08/02 05:37:34;;;;;;;1.33;0.70;;;;;;;24.13;84.36;94875.34;5114748;28;20903;-59
2023/08/02 05:40:04;;;;;;;0.70;0.63;;;;;;;24.47;83.12;94884.28;5115083;28;20443;-58
2023/08/02 05:42:32;;;;;;;0.60;0.60;;;;;;;24.39;82.13;94878.00;5115236;28;20439;-58
2023/08/02 05:45:01;;;;;;;0.60;0.53;;;;;;;24.57;82.11;94889.06;5114716;28;20556;-57
2023/08/02 05:47:29;;;;;;;1.00;0.83;;;;;;;24.65;81.28;94890.72;5114794;28;20890;-58
2023/08/02 05:49:58;;;;;;;1.03;0.50;;;;;;;25.03;78.93;94879.59;5114577;28;20440;-58
2023/08/02 05:52:26;;;;;;;0.50;0.50;;;;;;;25.07;78.84;94883.09;5115292;28;20476;-58
2023/08/02 05:54:54;;;;;;;1.93;0.73;;;;;;;25.51;78.46;94888.63;5114495;28;20970;-58
2023/08/02 05:57:24;;;;;;;0.83;0.83;;;;;;;25.65;75.31;94882.56;5114825;27;20439;-57
2023/08/02 05:59:52;;;;;;;1.07;0.73;;;;;;;25.70;74.84;94882.19;5114513;28;20877;-57
2023/08/02 06:02:21;;;;;;;1.80;1.23;;;;;;;25.63;77.23;94869.34;5114822;28;20508;-57
2023/08/02 06:04:49;;;;;;;0.47;0.40;;;;;;;26.15;73.84;94865.50;5114254;28;21022;-56
2023/08/02 06:07:17;;;;;;;1.10;1.00;;;;;;;25.86;75.14;94866.41;5115082;28;20929;-55
2023/08/02 06:09:48;;;;;;;0.87;0.60;;;;;;;26.43;71.97;94879.25;5115074;28;20436;-56
2023/08/02 06:12:16;;;;;;;1.63;1.53;;;;;;;26.29;71.73;94881.06;5114477;28;20551;-56
2023/08/02 06:14:46;;;;;;;1.80;0.90;;;;;;;26.03;73.53;94860.34;5114298;27;20444;-55
2023/08/02 06:17:15;;;;;;;1.70;0.40;;;;;;;26.46;72.14;94872.28;5114620;28;20949;-56
2023/08/02 06:19:44;;;;;;;0.70;0.70;;;;;;;26.74;71.51;94879.78;5114368;28;20443;-56
2023/08/02 06:22:13;;;;;;;6.60;1.17;;;;;;;26.42;70.83;94882.31;5113705;27;20435;-55
2023/08/02 06:24:43;;;;;;;0.83;0.83;;;;;;;26.20;70.84;94881.44;5113821;28;20446;-55
2023/08/02 06:27:12;;;;;;;0.60;0.60;;;;;;;26.43;71.89;94879.25;5114062;28;20436;-55
2023/08/02 06:29:40;;;;;;;0.90;0.70;;;;;;;26.21;71.49;94882.97;5114090;28;20443;-56
2023/08/02 06:32:10;;;;;;;2.70;1.13;;;;;;;26.65;70.61;94880.13;5113610;28;20463;-56
2023/08/02 06:34:38;;;;;;;3.53;0.70;;;;;;;27.27;68.62;94879.97;5113568;28;20439;-58
2023/08/02 06:37:07;;;;;;;0.40;0.40;;;;;;;28.13;66.39;94871.50;5113569;28;21025;-58
2023/08/02 06:39:35;;;;;;;0.50;0.50;;;;;;;28.18;64.52;94876.56;5113998;28;20435;-59
2023/08/02 06:42:03;;;;;;;1.43;0.40;;;;;;;28.83;63.69;94871.31;5113199;27;20432;-58
2023/08/02 06:44:32;;;;;;;7.20;1.13;;;;;;;28.28;63.74;94870.31;5113419;28;20435;-58
2023/08/02 06:47:01;;;;;;;5.57;0.80;;;;;;;27.60;66.01;94874.97;5113290;28;20438;-58
2023/08/02 06:49:30;;;;;;;0.83;0.80;;;;;;;27.50;66.10;94878.47;5113362;28;20471;-58
2023/08/02 06:51:59;;;;;;;0.80;0.77;;;;;;;27.39;67.10;94885.06;5112792;28;20455;-58
2023/08/02 06:54:27;;;;;;;0.80;0.80;;;;;;;27.51;66.75;94882.75;5113580;28;20473;-58
2023/08/02 06:56:56;;;;;;;1.33;0.40;;;;;;;27.43;67.02;94881.19;5105098;28;20563;-58
2023/08/02 06:59:24;;;;;;;0.60;0.50;;;;;;;27.91;66.05;94867.19;5113340;27;20439;-58
2023/08/02 07:01:54;;;;;;;0.50;0.40;;;;;;;28.28;64.75;94873.78;5113727;28;20458;-58
2023/08/02 07:04:22;;;;;;;0.63;0.63;;;;;;;27.92;64.71;94864.09;5113074;28;20439;-58
2023/08/02 07:06:52;;;;;;;1.07;0.47;;;;;;;28.33;66.11;94867.19;5113253;28;20470;-59
2023/08/02 07:09:20;;;;;;;0.73;0.73;;;;;;;28.93;62.47;94865.03;5112741;28;21017;-59
2023/08/02 07:11:48;;;;;;;0.63;0.57;;;;;;;29.91;59.92;94862.88;5112674;28;20431;-59
2023/08/02 07:14:17;;;;;;;0.50;0.30;;;;;;;30.26;58.55;94861.78;5112744;28;20855;-59
2023/08/02 07:16:46;;;;;;;0.70;0.43;;;;;;;30.27;59.12;94865.28;5113287;28;20477;-59
2023/08/02 07:19:14;;;;;;;0.93;0.50;;;;;;;30.58;59.22;94853.28;5112891;28;20965;-60
2023/08/02 07:21:42;;;;;;;1.33;0.97;;;;;;;30.30;57.56;94859.00;5113050;28;20439;-59
2023/08/02 07:24:12;;;;;;;0.60;0.50;;;;;;;30.22;58.10;94854.78;5112712;28;20459;-59
2023/08/02 07:26:41;;;;;;;0.50;0.50;;;;;;;30.14;58.56;94854.88;5112680;28;20442;-59
2023/08/02 07:29:09;;;;;;;1.63;1.53;;;;;;;30.40;58.24;94852.69;5112649;28;20436;-60
2023/08/02 07:31:37;;;;;;;0.90;0.63;;;;;;;30.97;56.65;94848.13;5113267;28;20451;-60
2023/08/02 07:34:06;;;;;;;0.93;0.93;;;;;;;31.20;55.45;94842.72;5112597;28;20544;-58
2023/08/02 07:36:34;;;;;;;1.63;1.53;;;;;;;29.63;58.20;94845.91;5112790;28;20431;-59
2023/08/02 07:39:02;;;;;;;1.00;0.80;;;;;;;30.29;58.19;94839.09;5112455;28;20450;-59
2023/08/02 07:41:32;;;;;;;1.00;1.00;;;;;;;30.29;60.15;94846.50;5112968;28;20439;-59
2023/08/02 07:44:00;;;;;;;0.50;0.40;;;;;;;31.21;56.13;94841.56;5112919;28;20439;-59
2023/08/02 07:46:29;;;;;;;1.53;1.43;;;;;;;30.78;55.86;94833.09;5112355;28;20950;-59
2023/08/02 07:48:57;;;;;;;0.50;0.40;;;;;;;31.45;54.92;94836.16;5085972;28;20704;-59
2023/08/02 07:51:26;;;;;;;0.70;0.60;;;;;;;31.48;55.25;94832.56;5112415;28;20492;-59
2023/08/02 07:53:54;;;;;;;0.80;0.80;;;;;;;31.37;55.63;94828.00;5112145;28;20474;-60
2023/08/02 07:56:22;;;;;;;0.63;0.57;;;;;;;32.14;53.85;94829.94;5111989;28;20431;-60
2023/08/02 07:58:52;;;;;;;1.03;0.93;;;;;;;32.71;52.16;94830.47;5112631;28;20878;-60
2023/08/02 08:01:21;;;;;;;0.97;0.97;;;;;;;32.61;52.86;94829.47;5111864;28;20986;-60
2023/08/02 08:03:49;;;;;;;0.90;0.90;;;;;;;31.94;52.88;94827.13;5112178;28;20439;-60
2023/08/02 08:06:19;;;;;;;6.13;0.83;;;;;;;31.79;53.48;94832.09;5112039;28;20996;-59
2023/08/02 08:08:49;;;;;;;0.40;0.40;;;;;;;32.33;53.22;94821.78;5111770;28;20839;-61
2023/08/02 08:11:18;;;;;;;1.43;1.33;;;;;;;31.41;53.89;94817.00;5112268;28;20454;-60
2023/08/02 08:13:51;;;;;;;1.10;1.03;;;;;;;31.80;53.51;94811.69;5111944;28;20475;-60
2023/08/02 08:16:20;;;;;;;1.00;0.73;;;;;;;32.68;54.44;94811.31;5112046;28;20434;-60
2023/08/02 08:18:49;;;;;;;0.60;0.40;;;;;;;32.63;52.40;94785.16;5111955;28;20443;-60
2023/08/02 08:21:19;;;;;;;0.90;0.50;;;;;;;33.06;52.07;94812.50;5111558;28;20496;-60
2023/08/02 08:23:47;;;;;;;1.00;0.73;;;;;;;33.04;51.71;94823.13;5111640;28;20442;-60
2023/08/02 08:26:15;;;;;;;0.87;0.50;;;;;;;33.13;53.10;94823.31;5111941;28;20441;-59
2023/08/02 08:28:45;;;;;;;0.57;0.50;;;;;;;33.04;51.90;94820.41;5111339;28;20522;-60
2023/08/02 08:31:14;;;;;;;0.63;0.63;;;;;;;32.98;52.14;94820.09;5112316;28;20447;-59
2023/08/02 08:33:43;;;;;;;0.73;0.73;;;;;;;32.90;51.73;94817.91;5111655;28;20532;-59
2023/08/02 08:36:14;;;;;;;1.30;1.20;;;;;;;32.59;51.75;94817.34;5111842;28;20496;-61
2023/08/02 08:38:42;;;;;;;1.27;1.17;;;;;;;31.90;52.94;94816.22;5111639;28;20430;-59
2023/08/02 08:41:14;;;;;;;0.60;0.60;;;;;;;32.93;51.42;94819.81;5111819;28;20443;-60
2023/08/02 08:43:42;;;;;;;0.70;0.70;;;;;;;33.51;50.38;94809.91;5111476;28;20578;-59
2023/08/02 08:46:12;;;;;;;0.70;0.70;;;;;;;33.75;49.44;94809.31;5111337;28;20471;-60
2023/08/02 08:48:41;;;;;;;3.03;0.67;;;;;;;33.57;49.93;94803.50;5111359;28;20506;-59
2023/08/02 08:51:12;;;;;;;1.33;1.33;;;;;;;33.00;49.19;94762.78;5111917;28;20877;-60
2023/08/02 08:53:44;;;;;;;1.73;1.40;;;;;;;32.64;50.40;94792.94;5111509;28;20481;-59
2023/08/02 08:56:12;;;;;;;0.53;0.50;;;;;;;33.50;49.38;94798.13;5111978;28;20443;-57
2023/08/02 08:58:41;;;;;;;0.93;0.83;;;;;;;34.20;48.52;94784.66;5111797;28;20866;-58
2023/08/02 09:01:10;;;;;;;0.50;0.50;;;;;;;34.79;47.50;94778.66;5111440;28;20430;-57
2023/08/02 09:03:39;;;;;;;1.10;1.00;;;;;;;33.88;47.81;94786.66;5111877;28;20435;-59
2023/08/02 09:06:08;;;;;;;1.93;1.13;;;;;;;34.08;48.37;94781.84;5111156;28;20434;-58
2023/08/02 09:08:47;;;;;;;0.50;0.50;;;;;;;33.76;47.89;94777.88;5111411;28;20442;-57
2023/08/02 09:11:16;;;;;;;1.70;1.60;;;;;;;33.79;47.36;94779.00;5111313;28;20915;-57
2023/08/02 09:13:45;;;;;;;1.17;1.10;;;;;;;33.17;48.62;94775.34;5111277;28;20836;-57
2023/08/02 09:16:14;;;;;;;0.80;0.80;;;;;;;34.22;47.47;94699.69;5111220;28;20435;-57
2023/08/02 09:18:45;;;;;;;1.00;1.00;;;;;;;34.11;46.95;94759.72;5111373;28;20469;-57
2023/08/02 09:21:14;;;;;;;0.60;0.53;;;;;;;34.40;47.26;94766.00;5111468;28;20479;-57
2023/08/02 09:23:48;;;;;;;0.53;0.53;;;;;;;35.04;46.74;94766.97;5111275;28;20813;-56
2023/08/02 09:26:18;;;;;;;1.20;1.07;;;;;;;34.32;49.91;94769.38;5111426;28;20433;-56
2023/08/02 09:29:01;;;;;;;0.60;0.50;;;;;;;35.27;47.20;94769.38;5110951;28;20439;-56
2023/08/02 09:31:30;;;;;;;0.73;0.50;;;;;;;36.17;44.29;94766.06;5111258;28;20442;-56
2023/08/02 09:33:59;;;;;;;0.83;0.83;;;;;;;36.41;44.44;94763.66;5110833;28;20467;-56
2023/08/02 09:36:28;;;;;;;0.80;0.80;;;;;;;36.14;43.75;94761.44;5113451;28;20443;-56
2023/08/02 09:39:01;;;;;;;1.17;0.80;;;;;;;36.30;44.47;94745.50;5114380;28;20185;-56
2023/08/02 09:41:31;;;;;;;1.17;1.17;;;;;;;35.39;42.49;94743.81;5115406;28;20239;-56
2023/08/02 09:44:21;;;;;;;0.53;0.53;;;;;;;35.57;43.55;94751.53;5114958;28;20756;-56
2023/08/02 09:46:50;;;;;;;0.40;0.30;;;;;;;36.83;41.88;94742.78;5114763;28;20197;-56
2023/08/02 09:49:19;;;;;;;0.63;0.60;;;;;;;36.28;41.77;94742.38;5114903;28;20232;-49
2023/08/02 09:51:48;;;;;;;1.40;1.30;;;;;;;35.82;43.81;94740.44;5114860;28;20189;-49
2023/08/02 09:54:18;;;;;;;6.77;1.70;;;;;;;35.40;43.91;94737.06;5115226;28;20213;-49
2023/08/02 09:56:46;;;;;;;0.80;0.80;;;;;;;36.01;45.48;94733.91;5114393;28;20189;-49
2023/08/02 09:59:16;;;;;;;1.00;0.97;;;;;;;36.53;42.18;94738.00;5114526;28;20201;-49
2023/08/02 10:01:48;;;;;;;0.80;0.80;;;;;;;36.58;42.38;94743.72;5114090;28;20196;-49
2023/08/02 10:04:20;;;;;;;0.50;0.50;;;;;;;37.17;41.20;94741.88;5115011;28;20553;-49
2023/08/02 10:06:51;;;;;;;0.73;0.73;;;;;;;36.50;42.16;94727.84;5114801;28;20565;-49
2023/08/02 10:09:26;;;;;;;1.50;1.40;;;;;;;35.85;42.54;94736.78;5114430;28;20201;-49
2023/08/02 10:11:58;;;;;;;0.90;0.90;;;;;;;36.11;43.15;94726.47;5115011;28;20195;-49
2023/08/02 10:14:28;;;;;;;0.50;0.50;;;;;;;36.81;43.07;94725.91;5114634;28;20293;-49
2023/08/02 10:16:59;;;;;;;1.10;1.00;;;;;;;37.43;40.43;94715.59;5114503;28;20201;-49
2023/08/02 10:19:29;;;;;;;0.60;0.60;;;;;;;37.82;42.27;94730.59;5114385;28;20193;-49
2023/08/02 10:21:58;;;;;;;0.93;0.77;;;;;;;38.29;39.74;94730.94;5114302;28;20284;-49
2023/08/02 10:24:29;;;;;;;0.50;0.50;;;;;;;38.28;38.84;94682.31;5114451;28;20196;-49
2023/08/02 10:26:58;;;;;;;0.82;0.68;;;;;;;37.21;40.36;94685.25;5114518;27;20655;-60
2023/08/02 10:29:28;;;;;;;0.80;0.80;;;;;;;36.91;42.02;94714.41;5088379;28;20221;-59
2023/08/02 10:31:57;;;;;;;0.63;0.60;;;;;;;37.09;40.95;94710.25;5113063;28;20196;-59
2023/08/02 10:34:49;;;;;;;0.63;0.63;;;;;;;36.94;41.54;94709.25;5102345;28;20251;-59
2023/08/02 10:37:19;;;;;;;0.85;0.60;;;;;;;37.61;39.90;94707.34;5109794;28;20284;-60
2023/08/02 10:39:56;;;;;;;0.50;0.43;;;;;;;38.34;39.32;94696.34;5114172;28;20253;-59
2023/08/02 10:42:29;;;;;;;0.68;0.60;;;;;;;37.88;40.51;94701.09;5088391;28;20569;-59
2023/08/02 10:45:15;;;;;;;0.75;0.73;;;;;;;37.36;39.84;94677.16;5113980;28;20193;-60
2023/08/02 10:47:43;;;;;;;0.82;0.82;;;;;;;38.05;40.28;94683.72;5113884;28;20312;-59
2023/08/02 10:50:44;;;;;;;1.13;0.80;;;;;;;38.85;38.63;94686.09;5113693;28;20212;-59
2023/08/02 10:53:13;;;;;;;1.45;1.45;;;;;;;38.40;38.57;94689.72;5113650;28;20201;-59
2023/08/02 10:56:04;;;;;;;3.50;0.63;;;;;;;39.10;38.05;94673.81;5104441;28;20214;-59
2023/08/02 10:58:46;;;;;;;0.85;0.50;;;;;;;38.84;38.23;94672.72;5113072;28;20193;-59
2023/08/02 11:01:14;;;;;;;0.90;0.90;;;;;;;38.93;37.44;94667.91;5113136;28;20197;-59
2023/08/02 11:03:44;;;;;;;0.40;0.30;;;;;;;39.17;36.62;94662.38;5113548;27;20197;-60
2023/08/02 11:06:29;;;;;;;0.50;0.50;;;;;;;39.13;37.10;94664.56;5113470;28;20628;-59
2023/08/02 11:09:03;;;;;;;0.80;0.80;;;;;;;38.55;37.55;94665.69;5113532;28;20197;-59
2023/08/02 11:11:35;;;;;;;0.68;0.68;;;;;;;38.41;37.75;94660.78;5113162;28;20673;-59
2023/08/02 11:14:04;;;;;;;1.08;1.08;;;;;;;37.11;39.19;94666.34;5113022;28;20204;-59
2023/08/02 11:16:39;;;;;;;0.88;0.50;;;;;;;35.80;40.34;94662.16;5106335;28;20659;-60
2023/08/02 11:19:10;;;;;;;1.02;1.02;;;;;;;36.28;40.94;94656.84;5106589;28;20680;-59
2023/08/02 11:21:39;;;;;;;1.15;1.08;;;;;;;36.27;40.30;94657.28;5102689;28;20610;-59
2023/08/02 11:24:07;;;;;;;0.50;0.50;;;;;;;36.07;41.32;94656.84;5099141;28;20188;-59
2023/08/02 11:26:37;;;;;;;0.70;0.70;;;;;;;35.62;41.70;94648.97;5113335;28;20616;-59
2023/08/02 11:29:09;;;;;;;1.20;1.20;;;;;;;35.14;41.74;94655.69;5112996;28;20201;-59
2023/08/02 11:31:38;;;;;;;2.08;1.13;;;;;;;34.77;41.81;94651.69;5113195;27;20246;-59
2023/08/02 11:34:18;;;;;;;0.60;0.47;;;;;;;35.01;42.19;94644.63;5112177;28;20192;-60
2023/08/02 11:36:50;;;;;;;1.10;0.90;;;;;;;34.78;41.85;94658.75;5112925;28;20261;-59
2023/08/02 11:39:20;;;;;;;0.63;0.57;;;;;;;35.62;41.66;94646.22;5112798;28;20188;-60
2023/08/02 11:42:01;;;;;;;0.88;0.88;;;;;;;36.50;39.95;94659.59;5112738;28;20615;-59
2023/08/02 11:44:29;;;;;;;1.35;0.80;;;;;;;35.97;38.13;94653.25;5112652;28;20200;-60
2023/08/02 11:46:58;;;;;;;0.43;0.43;;;;;;;35.60;37.54;94667.91;5112784;28;20219;-60